Latest Weather Observations for Lake Macquarie - Cooranbong

IDN60801

Issued at 9:33 pm EDT Saturday 28 March 2015 (issued every 30 minutes, with the page automatically refreshed every 10 minutes)

About weather observations | Map of weather stations | Latest weather observations for NSW | Other Formats
Station Details ID: 061412 Name: LAKE MACQUARIE AWS Lat: -33.09 Lon: 151.46 Height: 6.0 m
Data from the previous 72 hours. | See also: Recent months at Lake Macquarie - Cooranbong
Date/Time
EDT
Temp
°C
App
Temp
°C
Dew
Point
Rel
Hum
%
Delta-T
°C
Wind Press
QNH
hPa
Press
MSL
hPa
Rain
since 9 am
mm
Dir
 
Spd
km/h
Gust
km/h
Spd
kts
Gust
kts
28/09:30pm 14.5 15.4 12.9 90 0.9 CALM 0 0 0 0 1023.6 1023.6 0.0
28/09:00pm 14.5 15.3 12.5 88 1.1 CALM 0 0 0 0 1023.5 1023.5 0.0
28/08:30pm 15.5 16.4 12.8 84 1.5 CALM 0 0 0 0 1023.1 1023.1 0.0
28/08:00pm 16.2 17.0 12.7 80 1.9 CALM 0 0 0 0 1022.7 1022.7 0.0
28/07:30pm 17.3 18.2 12.8 75 2.5 CALM 0 0 0 0 1022.5 1022.5 0.0
28/07:00pm 18.9 19.0 12.6 67 3.5 ESE 4 6 2 3 1022.2 1022.2 0.0
28/06:30pm 20.4 20.0 12.9 62 4.3 ESE 7 11 4 6 1022.1 1022.1 0.0
28/06:00pm 20.9 20.4 12.6 59 4.7 SE 7 13 4 7 1021.9 1021.9 0.0
28/05:30pm 20.5 20.1 12.5 60 4.5 ESE 6 11 3 6 1021.8 1021.8 0.0
28/05:00pm 21.3 20.3 12.4 57 5.0 ESE 9 15 5 8 1021.7 1021.7 0.0
28/04:30pm 21.6 20.4 11.6 53 5.6 ESE 9 17 5 9 1021.7 1021.7 0.0
28/04:00pm 21.8 21.4 12.9 57 5.1 SE 7 13 4 7 1021.8 1021.8 0.0
28/03:30pm 22.7 22.1 12.3 52 5.9 ESE 7 13 4 7 1021.8 1021.8 0.0
28/03:00pm 22.6 21.2 12.3 52 5.8 SSE 11 20 6 11 1021.9 1021.9 0.0
28/02:30pm 22.3 20.1 12.0 52 5.8 ESE 15 22 8 12 1022.1 1022.1 0.0
28/02:00pm 22.3 21.1 11.7 51 5.9 ESE 9 19 5 10 1022.3 1022.3 0.0
28/01:30pm 23.0 21.4 11.7 49 6.4 E 11 19 6 10 1022.6 1022.6 0.0
28/01:00pm 21.6 20.7 11.3 52 5.7 S 7 13 4 7 1022.9 1022.9 0.0
28/12:30pm 22.2 21.1 10.7 48 6.3 ESE 7 11 4 6 1023.0 1023.0 0.0
28/12:00pm 22.8 22.3 10.6 46 6.7 S 4 9 2 5 1023.3 1023.3 0.0
28/11:30am 22.2 21.1 10.0 46 6.6 SE 6 15 3 8 1023.5 1023.5 0.0
28/11:00am 21.7 20.6 9.9 47 6.4 S 6 9 3 5 1023.6 1023.6 0.0
28/10:30am 20.9 19.6 9.2 47 6.2 S 6 13 3 7 1023.7 1023.7 0.0
28/10:00am 20.1 19.2 9.1 49 5.8 SSW 4 9 2 5 1023.7 1023.7 0.0
28/09:30am 18.4 16.9 9.2 55 4.8 WSW 7 11 4 6 1023.5 1023.5 0.0
28/09:00am 15.3 16.8 14.7 96 0.3 CALM 0 0 0 0 1023.4 1023.4 0.0
28/08:30am 12.2 12.7 11.7 97 0.3 CALM 0 0 0 0 1023.2 1023.2 0.0
28/08:00am 9.2 8.9 8.6 96 0.3 CALM 0 0 0 0 1022.8 1022.8 0.0
28/07:30am 7.9 7.2 7.1 95 0.4 CALM 0 0 0 0 1022.5 1022.5 0.0
28/07:00am 7.9 7.2 7.1 95 0.4 CALM 0 0 0 0 1022.1 1022.1 0.0
28/06:30am 8.2 7.6 7.4 95 0.4 CALM 0 0 0 0 1021.9 1021.9 0.0
28/06:00am 8.1 7.5 7.3 95 0.4 CALM 0 0 0 0 1021.6 1021.6 0.0
28/05:30am 8.6 8.1 7.8 95 0.4 CALM 0 0 0 0 1021.1 1021.1 0.0
28/05:00am 8.8 8.3 7.9 94 0.4 CALM 0 0 0 0 1020.7 1020.7 0.0
28/04:30am 9.0 8.6 8.1 94 0.4 CALM 0 0 0 0 1020.5 1020.5 0.0
28/04:00am 8.9 8.4 7.8 93 0.5 CALM 0 0 0 0 1020.6 1020.6 0.0
28/03:30am 9.0 8.6 8.1 94 0.4 CALM 0 0 0 0 1020.7 1020.7 0.0
28/03:00am 9.7 9.4 8.8 94 0.4 CALM 0 0 0 0 1020.8 1020.8 0.0
28/02:30am 10.1 9.9 9.2 94 0.4 CALM 0 0 0 0 1021.0 1021.0 0.0
28/02:00am 10.0 9.8 9.1 94 0.4 CALM 0 0 0 0 1021.1 1021.1 0.0
28/01:30am 10.7 10.7 9.8 94 0.5 CALM 0 0 0 0 1021.0 1021.0 0.0
28/01:00am 10.9 11.0 10.0 94 0.5 CALM 0 0 0 0 1020.9 1020.9 0.0
28/12:30am 11.3 11.5 10.4 94 0.5 CALM 0 0 0 0 1020.8 1020.8 0.0
28/12:00am 11.6 11.8 10.5 93 0.6 CALM 0 2 0 1 1020.9 1020.9 0.0
 
Date/Time
EDT
Temp
°C
App
Temp
°C
Dew
Point
Rel
Hum
%
Delta-T
°C
Wind Press
QNH
hPa
Press
MSL
hPa
Rain
since 9 am
mm
Dir
 
Spd
km/h
Gust
km/h
Spd
kts
Gust
kts
27/11:30pm 11.8 12.0 10.5 92 0.7 CALM 0 0 0 0 1020.9 1020.9 0.0
27/11:00pm 12.3 12.6 11.0 92 0.7 CALM 0 0 0 0 1020.8 1020.8 0.0
27/10:30pm 12.4 12.0 11.0 91 0.7 SSE 4 6 2 3 1020.8 1020.8 0.0
27/10:00pm 12.8 13.1 11.0 89 0.9 CALM 0 0 0 0 1020.5 1020.5 0.0
27/09:30pm 13.6 14.1 11.7 88 1.0 CALM 0 0 0 0 1020.2 1020.2 0.0
27/09:00pm 13.8 14.3 11.5 86 1.2 CALM 0 0 0 0 1019.9 1019.9 0.0
27/08:30pm 13.9 13.9 11.1 83 1.5 N 2 6 1 3 1019.4 1019.4 0.0
27/08:00pm 14.9 15.1 11.7 81 1.7 NE 2 4 1 2 1018.9 1018.9 0.0
27/07:30pm 16.6 17.0 11.1 70 3.0 CALM 0 0 0 0 1018.5 1018.5 0.0
27/07:00pm 18.1 18.4 11.0 63 3.8 CALM 0 0 0 0 1018.0 1018.0 0.0
27/06:30pm 20.4 20.4 9.9 51 5.6 CALM 0 0 0 0 1017.9 1017.9 0.0
27/06:00pm 21.5 19.8 8.4 43 6.9 ESE 7 13 4 7 1017.6 1017.6 0.0
27/05:30pm 22.1 20.2 8.9 43 7.0 E 9 19 5 10 1017.3 1017.3 0.0
27/05:00pm 22.7 19.9 8.4 40 7.6 E 13 24 7 13 1016.9 1016.9 0.0
27/04:30pm 26.9 24.3 3.4 22 11.7 W 6 11 3 6 1016.8 1016.8 0.0
27/04:00pm 26.3 23.8 3.5 23 11.3 NNW 6 11 3 6 1017.0 1017.0 0.0
27/03:30pm 25.8 23.4 5.4 27 10.4 N 7 13 4 7 1017.4 1017.4 0.0
27/03:00pm 25.6 23.9 5.8 28 10.2 SSW 4 13 2 7 1017.7 1017.7 0.0
27/02:30pm 24.4 22.0 4.2 27 10.0 SW 6 11 3 6 1018.2 1018.2 0.0
27/02:00pm 24.2 22.0 6.0 31 9.3 NW 7 11 4 6 1018.7 1018.7 0.0
27/01:30pm 23.4 20.6 3.4 27 9.7 WNW 7 15 4 8 1019.3 1019.3 0.0
27/01:00pm 22.9 19.8 3.4 28 9.4 WNW 9 19 5 10 1019.7 1019.7 0.0
27/12:30pm 22.5 19.9 3.1 28 9.3 WNW 6 11 3 6 1020.3 1020.3 0.0
27/12:00pm 21.9 19.4 4.9 33 8.4 WNW 7 13 4 7 1020.7 1020.7 0.0
27/11:30am 21.4 18.9 4.5 33 8.2 SW 7 13 4 7 1020.9 1020.9 0.0
27/11:00am 20.3 17.9 5.1 37 7.4 N 7 13 4 7 1021.1 1021.1 0.0
27/10:30am 19.0 16.0 4.0 37 7.1 NNW 9 15 5 8 1021.3 1021.3 0.0
27/10:00am 18.5 16.0 4.7 40 6.6 NNW 7 13 4 7 1021.5 1021.5 0.0
27/09:30am 17.3 14.9 4.3 42 6.1 NW 6 11 3 6 1021.6 1021.6 0.0
27/09:00am 15.6 14.1 6.6 55 4.4 N 4 7 2 4 1021.6 1021.6 0.2
27/08:30am 11.9 12.1 10.6 92 0.7 CALM 0 0 0 0 1021.5 1021.5 0.2
27/08:00am 8.3 7.6 7.1 92 0.6 CALM 0 0 0 0 1021.4 1021.4 0.0
27/07:30am 7.3 6.0 5.9 91 0.6 NW 2 7 1 4 1021.1 1021.1 0.0
27/07:00am 7.5 6.6 6.1 91 0.6 CALM 0 0 0 0 1020.9 1020.9 0.0
27/06:30am 8.4 7.1 6.2 86 1.0 W 2 6 1 3 1020.6 1020.6 0.0
27/06:00am 8.7 7.5 6.3 85 1.1 WNW 2 6 1 3 1020.3 1020.3 0.0
27/05:30am 9.6 8.0 6.3 80 1.5 WNW 4 6 2 3 1020.0 1020.0 0.0
27/05:00am 10.2 8.6 6.2 76 1.8 WNW 4 7 2 4 1019.9 1019.9 0.0
27/04:30am 10.7 9.3 7.2 79 1.7 W 4 7 2 4 1019.8 1019.8 0.0
27/04:00am 10.9 9.8 7.0 77 1.8 W 2 7 1 4 1019.8 1019.8 0.0
27/03:30am 11.0 10.6 8.1 82 1.4 CALM 0 0 0 0 1020.0 1020.0 0.0
27/03:00am 11.5 10.9 8.9 84 1.3 SSE 2 6 1 3 1020.1 1020.1 0.0
27/02:30am 11.2 11.2 9.8 91 0.7 CALM 0 0 0 0 1020.2 1020.2 0.0
27/02:00am 11.5 11.7 10.4 93 0.6 CALM 0 0 0 0 1020.3 1020.3 0.0
27/01:30am 12.3 12.7 11.4 94 0.5 CALM 0 0 0 0 1020.2 1020.2 0.0
27/01:00am 12.4 12.8 11.3 93 0.6 CALM 0 2 0 1 1020.1 1020.1 0.0
27/12:30am 12.4 12.8 11.3 93 0.6 CALM 0 0 0 0 1020.0 1020.0 0.0
27/12:00am 13.2 13.8 11.9 92 0.7 CALM 0 0 0 0 1019.8 1019.8 0.0
 
Date/Time
EDT
Temp
°C
App
Temp
°C
Dew
Point
Rel
Hum
%
Delta-T
°C
Wind Press
QNH
hPa
Press
MSL
hPa
Rain
since 9 am
mm
Dir
 
Spd
km/h
Gust
km/h
Spd
kts
Gust
kts
26/11:30pm 13.5 14.2 12.1 91 0.8 CALM 0 0 0 0 1019.6 1019.6 0.0
26/11:00pm 14.2 15.1 12.8 91 0.8 CALM 0 0 0 0 1019.6 1019.6 0.0
26/10:30pm 14.7 15.7 13.1 90 0.9 CALM 0 0 0 0 1019.4 1019.4 0.0
26/10:00pm 15.2 16.3 13.4 89 1.0 CALM 0 0 0 0 1019.0 1019.0 0.0
26/09:30pm 16.2 17.6 14.4 89 1.0 CALM 0 0 0 0 1018.6 1018.6 0.0
26/09:00pm 16.5 17.7 13.8 84 1.5 CALM 0 4 0 2 1018.3 1018.3 0.0
26/08:30pm 17.9 19.2 14.2 79 2.1 CALM 0 0 0 0 1017.9 1017.9 0.0
26/08:00pm 18.5 19.9 14.4 77 2.4 CALM 0 6 0 3 1017.4 1017.4 0.0
26/07:30pm 20.6 22.1 15.8 74 2.9 WSW 2 6 1 3 1016.6 1016.6 0.0
26/07:00pm 22.4 24.6 16.4 69 3.6 CALM 0 0 0 0 1016.0 1016.0 0.0
26/06:30pm 23.4 24.3 13.0 52 6.0 CALM 0 2 0 1 1015.4 1015.4 0.0
26/06:00pm 27.5 26.8 10.2 34 9.7 WSW 4 9 2 5 1015.1 1015.1 0.0
26/05:30pm 27.9 26.6 10.1 33 10.0 WSW 7 13 4 7 1014.8 1014.8 0.0
26/05:00pm 27.9 27.4 10.6 34 9.8 SW 4 7 2 4 1014.7 1014.7 0.0
26/04:30pm 28.1 27.0 9.9 32 10.2 WNW 6 9 3 5 1014.6 1014.6 0.0
26/04:00pm 27.9 26.5 9.7 32 10.1 W 7 17 4 9 1014.8 1014.8 0.0
26/03:30pm 27.6 25.8 9.4 32 10.1 NW 9 19 5 10 1015.0 1015.0 0.0
26/03:00pm 27.5 25.8 9.8 33 9.8 NNW 9 17 5 9 1015.3 1015.3 0.0
26/02:30pm 27.3 25.7 8.7 31 10.1 NW 7 13 4 7 1015.5 1015.5 0.0
26/02:00pm 27.1 25.7 9.5 33 9.7 NW 7 15 4 8 1015.7 1015.7 0.0
26/01:30pm 26.7 24.9 9.5 34 9.5 WNW 9 19 5 10 1016.2 1016.2 0.0
26/01:00pm 26.4 24.0 8.8 33 9.6 WNW 11 19 6 10 1016.5 1016.5 0.0
26/12:30pm 26.2 24.5 10.0 36 9.0 NW 9 17 5 9 1016.8 1016.8 0.0
26/12:00pm 25.5 24.5 12.4 44 7.5 WNW 9 15 5 8 1017.2 1017.2 0.0
26/11:30am 24.9 23.9 13.5 49 6.7 WNW 11 17 6 9 1017.5 1017.5 0.0
26/11:00am 24.0 23.7 14.4 55 5.7 NW 9 15 5 8 1017.7 1017.7 0.0
26/10:30am 24.0 24.9 16.5 63 4.6 NW 7 13 4 7 1018.0 1018.0 0.0
26/10:00am 23.0 23.8 16.3 66 4.1 NNW 7 15 4 8 1018.0 1018.0 0.0
26/09:30am 22.2 23.1 16.0 68 3.7 NNW 6 9 3 5 1017.9 1017.9 0.0
26/09:00am 20.9 22.4 16.7 77 2.5 N 4 6 2 3 1017.9 1017.9 0.0
26/08:30am 19.0 21.7 17.7 92 0.8 CALM 0 0 0 0 1017.8 1017.8 0.0
26/08:00am 17.4 19.6 16.6 95 0.5 CALM 0 2 0 1 1017.6 1017.6 0.0
26/07:30am 17.0 19.0 15.9 93 0.6 CALM 0 0 0 0 1017.3 1017.3 0.0
26/07:00am 17.1 19.0 15.8 92 0.8 CALM 0 0 0 0 1017.0 1017.0 0.0
26/06:30am 17.8 20.1 16.7 93 0.7 CALM 0 4 0 2 1016.7 1016.7 0.0
26/06:00am 17.9 20.2 16.8 93 0.7 CALM 0 0 0 0 1016.7 1016.7 0.0
26/05:30am 17.6 19.7 16.3 92 0.8 CALM 0 0 0 0 1016.6 1016.6 0.0
26/05:00am 17.5 19.6 16.2 92 0.8 CALM 0 0 0 0 1016.5 1016.5 0.0
26/04:30am 17.4 19.4 16.1 92 0.8 CALM 0 0 0 0 1016.5 1016.5 0.0
26/04:00am 17.3 19.4 16.2 93 0.7 CALM 0 0 0 0 1016.6 1016.6 0.0
26/03:30am 17.2 19.2 16.1 93 0.7 CALM 0 0 0 0 1016.6 1016.6 0.0
26/03:00am 17.1 19.0 15.8 92 0.8 CALM 0 0 0 0 1016.7 1016.7 0.0
26/02:30am 17.0 19.0 15.9 93 0.6 CALM 0 0 0 0 1017.0 1017.0 0.0
26/02:00am 16.9 18.8 15.8 93 0.6 CALM 0 0 0 0 1017.5 1017.5 0.0
26/01:30am 16.8 18.7 15.7 93 0.6 CALM 0 0 0 0 1017.6 1017.6 0.0
26/01:00am 16.6 18.4 15.5 93 0.6 CALM 0 0 0 0 1017.8 1017.8 0.0
26/12:30am 16.4 18.1 15.1 92 0.8 CALM 0 0 0 0 1018.0 1018.0 0.0
26/12:00am 16.5 18.2 15.2 92 0.8 CALM 0 0 0 0 1018.2 1018.2 0.0
 
Date/Time
EDT
Temp
°C
App
Temp
°C
Dew
Point
Rel
Hum
%
Delta-T
°C
Wind Press
QNH
hPa
Press
MSL
hPa
Rain
since 9 am
mm
Dir
 
Spd
km/h
Gust
km/h
Spd
kts
Gust
kts
25/11:30pm 16.8 18.7 15.7 93 0.6 CALM 0 0 0 0 1018.4 1018.4 0.0
25/11:00pm 16.4 18.1 15.1 92 0.8 CALM 0 0 0 0 1018.5 1018.5 0.0
25/10:30pm 16.3 17.9 14.8 91 0.9 CALM 0 0 0 0 1018.5 1018.5 0.0
25/10:00pm 16.5 18.2 15.2 92 0.8 CALM 0 0 0 0 1018.6 1018.6 0.0

Other Formats:

Comma delimited format used in spreadsheet applications
http://www.bom.gov.au/fwo/IDN60801/IDN60801.95767.axf

JavaScript Object Notation format (JSON) in row-major order
http://www.bom.gov.au/fwo/IDN60801/IDN60801.95767.json